sensor_id;sensor_type;location;lat;lon;timestamp;P1;durP1;ratioP1;P2;durP2;ratioP2
5742;SDS011;2896;53.500;10.020;2023-03-01T00:01:00;36.40;;;23.23;;
5742;SDS011;2896;53.500;10.020;2023-03-01T00:03:28;46.50;;;25.60;;
5742;SDS011;2896;53.500;10.020;2023-03-01T00:05:57;48.33;;;24.40;;
5742;SDS011;2896;53.500;10.020;2023-03-01T00:08:23;50.87;;;26.20;;
5742;SDS011;2896;53.500;10.020;2023-03-01T00:10:59;47.77;;;25.60;;
5742;SDS011;2896;53.500;10.020;2023-03-01T00:13:26;44.67;;;24.37;;
5742;SDS011;2896;53.500;10.020;2023-03-01T00:15:53;46.67;;;24.50;;
5742;SDS011;2896;53.500;10.020;2023-03-01T00:18:19;47.50;;;25.80;;
5742;SDS011;2896;53.500;10.020;2023-03-01T00:20:49;47.63;;;25.53;;
5742;SDS011;2896;53.500;10.020;2023-03-01T00:23:18;55.47;;;27.00;;
5742;SDS011;2896;53.500;10.020;2023-03-01T00:25:44;50.73;;;25.47;;
5742;SDS011;2896;53.500;10.020;2023-03-01T00:28:11;47.03;;;23.83;;
5742;SDS011;2896;53.500;10.020;2023-03-01T00:30:38;44.50;;;23.90;;
5742;SDS011;2896;53.500;10.020;2023-03-01T00:33:05;49.50;;;24.37;;
5742;SDS011;2896;53.500;10.020;2023-03-01T00:35:32;49.90;;;25.30;;
5742;SDS011;2896;53.500;10.020;2023-03-01T00:37:59;43.87;;;23.80;;
5742;SDS011;2896;53.500;10.020;2023-03-01T00:40:28;43.03;;;23.33;;
5742;SDS011;2896;53.500;10.020;2023-03-01T00:42:55;49.77;;;23.97;;
5742;SDS011;2896;53.500;10.020;2023-03-01T00:45:22;43.40;;;23.80;;
5742;SDS011;2896;53.500;10.020;2023-03-01T00:47:49;44.13;;;22.63;;
5742;SDS011;2896;53.500;10.020;2023-03-01T00:50:16;47.27;;;23.53;;
5742;SDS011;2896;53.500;10.020;2023-03-01T00:52:43;46.50;;;24.03;;
5742;SDS011;2896;53.500;10.020;2023-03-01T00:55:10;41.07;;;22.23;;
5742;SDS011;2896;53.500;10.020;2023-03-01T00:57:39;38.07;;;21.27;;
5742;SDS011;2896;53.500;10.020;2023-03-01T01:00:06;48.50;;;22.53;;
5742;SDS011;2896;53.500;10.020;2023-03-01T01:02:34;33.83;;;19.93;;
5742;SDS011;2896;53.500;10.020;2023-03-01T01:05:01;35.80;;;20.20;;
5742;SDS011;2896;53.500;10.020;2023-03-01T01:07:28;30.67;;;17.87;;
5742;SDS011;2896;53.500;10.020;2023-03-01T01:09:55;34.47;;;20.33;;
5742;SDS011;2896;53.500;10.020;2023-03-01T01:12:21;40.13;;;20.13;;
5742;SDS011;2896;53.500;10.020;2023-03-01T01:14:49;37.07;;;20.63;;
5742;SDS011;2896;53.500;10.020;2023-03-01T01:17:16;38.83;;;20.50;;
5742;SDS011;2896;53.500;10.020;2023-03-01T01:19:43;34.23;;;19.70;;
5742;SDS011;2896;53.500;10.020;2023-03-01T01:22:09;36.40;;;19.40;;
5742;SDS011;2896;53.500;10.020;2023-03-01T01:24:36;34.70;;;18.90;;
5742;SDS011;2896;53.500;10.020;2023-03-01T01:27:02;35.90;;;20.07;;
5742;SDS011;2896;53.500;10.020;2023-03-01T01:29:29;34.10;;;18.17;;
5742;SDS011;2896;53.500;10.020;2023-03-01T01:31:57;31.53;;;17.57;;
5742;SDS011;2896;53.500;10.020;2023-03-01T01:34:24;31.97;;;16.37;;
5742;SDS011;2896;53.500;10.020;2023-03-01T01:36:51;32.63;;;17.07;;
5742;SDS011;2896;53.500;10.020;2023-03-01T01:39:19;35.73;;;15.93;;
5742;SDS011;2896;53.500;10.020;2023-03-01T01:41:46;28.63;;;16.53;;
5742;SDS011;2896;53.500;10.020;2023-03-01T01:44:14;29.67;;;16.70;;
5742;SDS011;2896;53.500;10.020;2023-03-01T01:46:44;22.67;;;14.20;;
5742;SDS011;2896;53.500;10.020;2023-03-01T01:49:21;24.60;;;14.77;;
5742;SDS011;2896;53.500;10.020;2023-03-01T01:51:51;24.73;;;14.00;;
5742;SDS011;2896;53.500;10.020;2023-03-01T01:54:24;27.23;;;13.80;;
5742;SDS011;2896;53.500;10.020;2023-03-01T01:56:55;24.63;;;14.13;;
5742;SDS011;2896;53.500;10.020;2023-03-01T01:59:26;19.43;;;12.73;;
5742;SDS011;2896;53.500;10.020;2023-03-01T02:01:55;22.30;;;13.37;;
5742;SDS011;2896;53.500;10.020;2023-03-01T02:04:26;18.80;;;11.73;;
5742;SDS011;2896;53.500;10.020;2023-03-01T02:06:55;20.10;;;11.43;;
5742;SDS011;2896;53.500;10.020;2023-03-01T02:09:27;23.63;;;13.03;;
5742;SDS011;2896;53.500;10.020;2023-03-01T02:11:56;25.10;;;11.37;;
5742;SDS011;2896;53.500;10.020;2023-03-01T02:14:24;18.30;;;10.50;;
5742;SDS011;2896;53.500;10.020;2023-03-01T02:16:51;20.77;;;13.20;;
5742;SDS011;2896;53.500;10.020;2023-03-01T02:19:21;19.60;;;12.17;;
5742;SDS011;2896;53.500;10.020;2023-03-01T02:21:58;18.07;;;11.00;;
5742;SDS011;2896;53.500;10.020;2023-03-01T02:24:34;18.03;;;11.63;;
5742;SDS011;2896;53.500;10.020;2023-03-01T02:27:08;21.63;;;11.60;;
5742;SDS011;2896;53.500;10.020;2023-03-01T02:29:38;25.97;;;10.77;;
5742;SDS011;2896;53.500;10.020;2023-03-01T02:32:04;19.47;;;11.77;;
5742;SDS011;2896;53.500;10.020;2023-03-01T02:34:31;16.80;;;10.60;;
5742;SDS011;2896;53.500;10.020;2023-03-01T02:37:00;18.57;;;10.97;;
5742;SDS011;2896;53.500;10.020;2023-03-01T02:39:30;16.03;;;11.07;;
5742;SDS011;2896;53.500;10.020;2023-03-01T02:42:00;22.83;;;11.93;;
5742;SDS011;2896;53.500;10.020;2023-03-01T02:44:28;22.90;;;11.20;;
5742;SDS011;2896;53.500;10.020;2023-03-01T02:46:56;21.60;;;11.43;;
5742;SDS011;2896;53.500;10.020;2023-03-01T02:49:28;19.07;;;10.70;;
5742;SDS011;2896;53.500;10.020;2023-03-01T02:52:01;15.40;;;10.43;;
5742;SDS011;2896;53.500;10.020;2023-03-01T02:54:58;15.43;;;9.80;;
5742;SDS011;2896;53.500;10.020;2023-03-01T02:57:27;17.67;;;10.97;;
5742;SDS011;2896;53.500;10.020;2023-03-01T02:59:56;13.37;;;9.53;;
5742;SDS011;2896;53.500;10.020;2023-03-01T03:02:27;15.83;;;9.87;;
5742;SDS011;2896;53.500;10.020;2023-03-01T03:05:03;17.43;;;11.00;;
5742;SDS011;2896;53.500;10.020;2023-03-01T03:07:31;16.30;;;10.30;;
5742;SDS011;2896;53.500;10.020;2023-03-01T03:09:58;17.83;;;10.00;;
5742;SDS011;2896;53.500;10.020;2023-03-01T03:12:25;19.80;;;10.50;;
5742;SDS011;2896;53.500;10.020;2023-03-01T03:14:52;15.80;;;9.90;;
5742;SDS011;2896;53.500;10.020;2023-03-01T03:17:19;16.97;;;10.93;;
5742;SDS011;2896;53.500;10.020;2023-03-01T03:19:47;15.60;;;9.27;;
5742;SDS011;2896;53.500;10.020;2023-03-01T03:22:13;19.33;;;10.43;;
5742;SDS011;2896;53.500;10.020;2023-03-01T03:24:40;16.40;;;10.20;;
5742;SDS011;2896;53.500;10.020;2023-03-01T03:27:07;13.47;;;10.00;;
5742;SDS011;2896;53.500;10.020;2023-03-01T03:29:34;17.43;;;10.37;;
5742;SDS011;2896;53.500;10.020;2023-03-01T03:32:00;17.60;;;10.23;;
5742;SDS011;2896;53.500;10.020;2023-03-01T03:34:28;22.17;;;10.20;;
5742;SDS011;2896;53.500;10.020;2023-03-01T03:36:56;27.13;;;10.90;;
5742;SDS011;2896;53.500;10.020;2023-03-01T03:39:24;17.97;;;10.60;;
5742;SDS011;2896;53.500;10.020;2023-03-01T03:41:52;13.70;;;9.10;;
5742;SDS011;2896;53.500;10.020;2023-03-01T03:44:19;19.33;;;9.23;;
5742;SDS011;2896;53.500;10.020;2023-03-01T03:46:46;16.53;;;9.83;;
5742;SDS011;2896;53.500;10.020;2023-03-01T03:49:12;19.83;;;11.10;;
5742;SDS011;2896;53.500;10.020;2023-03-01T03:51:39;14.43;;;9.97;;
5742;SDS011;2896;53.500;10.020;2023-03-01T03:54:07;18.53;;;10.00;;
5742;SDS011;2896;53.500;10.020;2023-03-01T03:56:34;14.87;;;9.87;;
5742;SDS011;2896;53.500;10.020;2023-03-01T03:59:00;15.30;;;9.20;;
5742;SDS011;2896;53.500;10.020;2023-03-01T04:01:27;17.93;;;10.60;;
5742;SDS011;2896;53.500;10.020;2023-03-01T04:03:54;13.80;;;9.80;;
5742;SDS011;2896;53.500;10.020;2023-03-01T04:06:20;14.07;;;10.27;;
5742;SDS011;2896;53.500;10.020;2023-03-01T04:08:47;16.77;;;9.43;;
5742;SDS011;2896;53.500;10.020;2023-03-01T04:11:17;17.73;;;9.80;;
5742;SDS011;2896;53.500;10.020;2023-03-01T04:13:53;14.43;;;10.30;;
5742;SDS011;2896;53.500;10.020;2023-03-01T04:16:22;15.87;;;10.00;;
5742;SDS011;2896;53.500;10.020;2023-03-01T04:18:49;13.27;;;9.50;;
5742;SDS011;2896;53.500;10.020;2023-03-01T04:21:17;13.33;;;9.70;;
5742;SDS011;2896;53.500;10.020;2023-03-01T04:23:45;14.57;;;8.80;;
5742;SDS011;2896;53.500;10.020;2023-03-01T04:26:12;13.20;;;9.27;;
5742;SDS011;2896;53.500;10.020;2023-03-01T04:28:40;11.87;;;8.90;;
5742;SDS011;2896;53.500;10.020;2023-03-01T04:31:10;14.23;;;9.63;;
5742;SDS011;2896;53.500;10.020;2023-03-01T04:33:43;17.93;;;10.33;;
5742;SDS011;2896;53.500;10.020;2023-03-01T04:36:12;13.50;;;9.20;;
5742;SDS011;2896;53.500;10.020;2023-03-01T04:38:40;15.30;;;9.17;;
5742;SDS011;2896;53.500;10.020;2023-03-01T04:41:08;12.50;;;8.30;;
5742;SDS011;2896;53.500;10.020;2023-03-01T04:43:37;17.30;;;9.17;;
5742;SDS011;2896;53.500;10.020;2023-03-01T04:46:06;21.13;;;9.47;;
5742;SDS011;2896;53.500;10.020;2023-03-01T04:48:34;14.03;;;9.27;;
5742;SDS011;2896;53.500;10.020;2023-03-01T04:51:01;20.00;;;9.83;;
5742;SDS011;2896;53.500;10.020;2023-03-01T04:53:28;16.40;;;10.33;;
5742;SDS011;2896;53.500;10.020;2023-03-01T04:55:55;13.60;;;9.37;;
5742;SDS011;2896;53.500;10.020;2023-03-01T04:58:22;14.73;;;9.37;;
5742;SDS011;2896;53.500;10.020;2023-03-01T05:00:49;16.60;;;10.10;;
5742;SDS011;2896;53.500;10.020;2023-03-01T05:03:18;16.80;;;10.20;;
5742;SDS011;2896;53.500;10.020;2023-03-01T05:05:46;18.20;;;10.00;;
5742;SDS011;2896;53.500;10.020;2023-03-01T05:08:14;13.90;;;9.40;;
5742;SDS011;2896;53.500;10.020;2023-03-01T05:10:43;13.60;;;9.07;;
5742;SDS011;2896;53.500;10.020;2023-03-01T05:13:12;16.33;;;9.73;;
5742;SDS011;2896;53.500;10.020;2023-03-01T05:15:45;12.77;;;9.07;;
5742;SDS011;2896;53.500;10.020;2023-03-01T05:18:13;13.43;;;9.67;;
5742;SDS011;2896;53.500;10.020;2023-03-01T05:20:41;15.87;;;10.83;;
5742;SDS011;2896;53.500;10.020;2023-03-01T05:23:07;13.00;;;10.80;;
5742;SDS011;2896;53.500;10.020;2023-03-01T05:25:34;17.43;;;11.30;;
5742;SDS011;2896;53.500;10.020;2023-03-01T05:28:05;19.33;;;11.37;;
5742;SDS011;2896;53.500;10.020;2023-03-01T05:30:33;17.20;;;10.77;;
5742;SDS011;2896;53.500;10.020;2023-03-01T05:33:00;19.30;;;11.33;;
5742;SDS011;2896;53.500;10.020;2023-03-01T05:35:27;16.80;;;10.10;;
5742;SDS011;2896;53.500;10.020;2023-03-01T05:37:55;15.30;;;10.20;;
5742;SDS011;2896;53.500;10.020;2023-03-01T05:40:23;14.50;;;9.60;;
5742;SDS011;2896;53.500;10.020;2023-03-01T05:42:51;15.93;;;9.47;;
5742;SDS011;2896;53.500;10.020;2023-03-01T05:45:19;12.70;;;9.00;;
5742;SDS011;2896;53.500;10.020;2023-03-01T05:47:47;11.57;;;8.60;;
5742;SDS011;2896;53.500;10.020;2023-03-01T05:50:15;10.90;;;8.73;;
5742;SDS011;2896;53.500;10.020;2023-03-01T05:52:44;10.27;;;8.80;;
5742;SDS011;2896;53.500;10.020;2023-03-01T05:55:14;12.93;;;8.80;;
5742;SDS011;2896;53.500;10.020;2023-03-01T05:57:41;11.77;;;8.57;;
5742;SDS011;2896;53.500;10.020;2023-03-01T06:00:09;10.63;;;9.30;;
5742;SDS011;2896;53.500;10.020;2023-03-01T06:02:36;12.53;;;9.27;;
5742;SDS011;2896;53.500;10.020;2023-03-01T06:05:03;17.43;;;9.10;;
5742;SDS011;2896;53.500;10.020;2023-03-01T06:07:31;15.30;;;9.90;;
5742;SDS011;2896;53.500;10.020;2023-03-01T06:09:58;16.77;;;10.77;;
5742;SDS011;2896;53.500;10.020;2023-03-01T06:12:27;15.60;;;10.20;;
5742;SDS011;2896;53.500;10.020;2023-03-01T06:14:56;18.77;;;10.90;;
5742;SDS011;2896;53.500;10.020;2023-03-01T06:17:23;20.20;;;10.40;;
5742;SDS011;2896;53.500;10.020;2023-03-01T06:19:50;14.80;;;9.90;;
5742;SDS011;2896;53.500;10.020;2023-03-01T06:22:16;15.00;;;10.60;;
5742;SDS011;2896;53.500;10.020;2023-03-01T06:24:44;23.47;;;9.90;;
5742;SDS011;2896;53.500;10.020;2023-03-01T06:27:11;18.87;;;10.50;;
5742;SDS011;2896;53.500;10.020;2023-03-01T06:29:39;20.80;;;10.13;;
5742;SDS011;2896;53.500;10.020;2023-03-01T06:32:05;12.37;;;10.73;;
5742;SDS011;2896;53.500;10.020;2023-03-01T06:34:33;14.97;;;9.20;;
5742;SDS011;2896;53.500;10.020;2023-03-01T06:37:00;19.20;;;12.07;;
5742;SDS011;2896;53.500;10.020;2023-03-01T06:39:27;15.03;;;10.43;;
5742;SDS011;2896;53.500;10.020;2023-03-01T06:41:54;20.97;;;12.63;;
5742;SDS011;2896;53.500;10.020;2023-03-01T06:44:21;22.93;;;15.00;;
5742;SDS011;2896;53.500;10.020;2023-03-01T06:46:49;24.80;;;14.17;;
5742;SDS011;2896;53.500;10.020;2023-03-01T06:49:16;21.27;;;12.80;;
5742;SDS011;2896;53.500;10.020;2023-03-01T06:51:43;20.30;;;12.30;;
5742;SDS011;2896;53.500;10.020;2023-03-01T06:54:10;17.30;;;10.80;;
5742;SDS011;2896;53.500;10.020;2023-03-01T06:56:36;14.57;;;11.20;;
5742;SDS011;2896;53.500;10.020;2023-03-01T06:59:03;18.90;;;11.17;;
5742;SDS011;2896;53.500;10.020;2023-03-01T07:01:31;14.27;;;10.20;;
5742;SDS011;2896;53.500;10.020;2023-03-01T07:03:59;17.60;;;9.77;;
5742;SDS011;2896;53.500;10.020;2023-03-01T07:06:25;16.03;;;9.43;;
5742;SDS011;2896;53.500;10.020;2023-03-01T07:08:52;29.50;;;10.17;;
5742;SDS011;2896;53.500;10.020;2023-03-01T07:11:19;9.57;;;8.60;;
5742;SDS011;2896;53.500;10.020;2023-03-01T07:13:45;9.50;;;8.40;;
5742;SDS011;2896;53.500;10.020;2023-03-01T07:16:12;11.80;;;9.20;;
5742;SDS011;2896;53.500;10.020;2023-03-01T07:18:39;9.10;;;7.70;;
5742;SDS011;2896;53.500;10.020;2023-03-01T07:21:08;12.77;;;8.57;;
5742;SDS011;2896;53.500;10.020;2023-03-01T07:23:36;12.53;;;9.90;;
5742;SDS011;2896;53.500;10.020;2023-03-01T07:26:03;16.43;;;10.10;;
5742;SDS011;2896;53.500;10.020;2023-03-01T07:28:30;18.57;;;9.87;;
5742;SDS011;2896;53.500;10.020;2023-03-01T07:31:00;12.20;;;8.80;;
5742;SDS011;2896;53.500;10.020;2023-03-01T07:33:28;11.73;;;8.17;;
5742;SDS011;2896;53.500;10.020;2023-03-01T07:35:58;17.23;;;8.80;;
5742;SDS011;2896;53.500;10.020;2023-03-01T07:38:27;21.73;;;9.27;;
5742;SDS011;2896;53.500;10.020;2023-03-01T07:40:57;14.17;;;8.60;;
5742;SDS011;2896;53.500;10.020;2023-03-01T07:43:24;16.43;;;7.43;;
5742;SDS011;2896;53.500;10.020;2023-03-01T07:45:51;19.83;;;8.27;;
5742;SDS011;2896;53.500;10.020;2023-03-01T07:48:18;14.63;;;8.10;;
5742;SDS011;2896;53.500;10.020;2023-03-01T07:50:44;16.80;;;7.93;;
5742;SDS011;2896;53.500;10.020;2023-03-01T07:53:11;13.10;;;7.50;;
5742;SDS011;2896;53.500;10.020;2023-03-01T07:55:39;11.70;;;7.63;;
5742;SDS011;2896;53.500;10.020;2023-03-01T07:58:06;28.37;;;8.50;;
5742;SDS011;2896;53.500;10.020;2023-03-01T08:00:32;17.67;;;8.40;;
5742;SDS011;2896;53.500;10.020;2023-03-01T08:02:59;12.50;;;7.70;;
5742;SDS011;2896;53.500;10.020;2023-03-01T08:05:26;15.70;;;7.50;;
5742;SDS011;2896;53.500;10.020;2023-03-01T08:07:53;11.90;;;8.60;;
5742;SDS011;2896;53.500;10.020;2023-03-01T08:10:20;24.10;;;8.13;;
5742;SDS011;2896;53.500;10.020;2023-03-01T08:12:48;13.43;;;8.00;;
5742;SDS011;2896;53.500;10.020;2023-03-01T08:15:17;15.63;;;7.57;;
5742;SDS011;2896;53.500;10.020;2023-03-01T08:17:44;10.60;;;6.93;;
5742;SDS011;2896;53.500;10.020;2023-03-01T08:20:11;20.97;;;7.73;;
5742;SDS011;2896;53.500;10.020;2023-03-01T08:22:38;18.20;;;7.00;;
5742;SDS011;2896;53.500;10.020;2023-03-01T08:25:05;17.13;;;7.40;;
5742;SDS011;2896;53.500;10.020;2023-03-01T08:27:31;10.10;;;7.63;;
5742;SDS011;2896;53.500;10.020;2023-03-01T08:29:59;13.33;;;7.87;;
5742;SDS011;2896;53.500;10.020;2023-03-01T08:32:26;16.20;;;7.43;;
5742;SDS011;2896;53.500;10.020;2023-03-01T08:34:52;10.33;;;7.57;;
5742;SDS011;2896;53.500;10.020;2023-03-01T08:37:19;12.23;;;6.80;;
5742;SDS011;2896;53.500;10.020;2023-03-01T08:39:46;12.63;;;7.90;;
5742;SDS011;2896;53.500;10.020;2023-03-01T08:42:13;15.17;;;7.17;;
5742;SDS011;2896;53.500;10.020;2023-03-01T08:44:39;21.33;;;7.77;;
5742;SDS011;2896;53.500;10.020;2023-03-01T08:47:07;14.70;;;7.50;;
5742;SDS011;2896;53.500;10.020;2023-03-01T08:49:34;19.63;;;8.10;;
5742;SDS011;2896;53.500;10.020;2023-03-01T08:52:01;15.03;;;7.70;;
5742;SDS011;2896;53.500;10.020;2023-03-01T08:54:28;14.30;;;8.60;;
5742;SDS011;2896;53.500;10.020;2023-03-01T08:56:55;10.63;;;7.60;;
5742;SDS011;2896;53.500;10.020;2023-03-01T08:59:25;14.63;;;8.87;;
5742;SDS011;2896;53.500;10.020;2023-03-01T09:01:52;19.83;;;8.20;;
5742;SDS011;2896;53.500;10.020;2023-03-01T09:04:20;22.63;;;9.17;;
5742;SDS011;2896;53.500;10.020;2023-03-01T09:06:47;26.63;;;8.53;;
5742;SDS011;2896;53.500;10.020;2023-03-01T09:09:14;15.13;;;8.10;;
5742;SDS011;2896;53.500;10.020;2023-03-01T09:11:42;16.70;;;9.23;;
5742;SDS011;2896;53.500;10.020;2023-03-01T09:14:11;16.33;;;9.63;;
5742;SDS011;2896;53.500;10.020;2023-03-01T09:16:37;35.73;;;9.23;;
5742;SDS011;2896;53.500;10.020;2023-03-01T09:19:05;17.33;;;9.20;;
5742;SDS011;2896;53.500;10.020;2023-03-01T09:21:33;14.50;;;9.40;;
5742;SDS011;2896;53.500;10.020;2023-03-01T09:23:59;21.70;;;8.80;;
5742;SDS011;2896;53.500;10.020;2023-03-01T09:26:26;16.93;;;9.70;;
5742;SDS011;2896;53.500;10.020;2023-03-01T09:28:53;19.67;;;8.40;;
5742;SDS011;2896;53.500;10.020;2023-03-01T09:31:21;13.77;;;9.20;;
5742;SDS011;2896;53.500;10.020;2023-03-01T09:33:50;16.80;;;10.03;;
5742;SDS011;2896;53.500;10.020;2023-03-01T09:36:19;16.53;;;10.27;;
5742;SDS011;2896;53.500;10.020;2023-03-01T09:38:48;22.70;;;11.70;;
5742;SDS011;2896;53.500;10.020;2023-03-01T09:41:21;20.63;;;11.80;;
5742;SDS011;2896;53.500;10.020;2023-03-01T09:44:05;19.23;;;10.83;;
5742;SDS011;2896;53.500;10.020;2023-03-01T09:46:40;23.93;;;11.47;;
5742;SDS011;2896;53.500;10.020;2023-03-01T09:49:09;20.20;;;12.13;;
5742;SDS011;2896;53.500;10.020;2023-03-01T09:51:41;23.70;;;13.33;;
5742;SDS011;2896;53.500;10.020;2023-03-01T09:54:13;15.33;;;11.00;;
5742;SDS011;2896;53.500;10.020;2023-03-01T09:56:41;16.90;;;11.53;;
5742;SDS011;2896;53.500;10.020;2023-03-01T09:59:15;40.50;;;11.80;;
5742;SDS011;2896;53.500;10.020;2023-03-01T10:01:50;18.00;;;12.70;;
5742;SDS011;2896;53.500;10.020;2023-03-01T10:04:31;22.33;;;12.30;;
5742;SDS011;2896;53.500;10.020;2023-03-01T10:07:14;17.13;;;11.50;;
5742;SDS011;2896;53.500;10.020;2023-03-01T10:09:49;21.07;;;13.20;;
5742;SDS011;2896;53.500;10.020;2023-03-01T10:12:16;27.70;;;12.53;;
5742;SDS011;2896;53.500;10.020;2023-03-01T10:14:48;17.70;;;12.00;;
5742;SDS011;2896;53.500;10.020;2023-03-01T10:17:24;21.47;;;12.47;;
5742;SDS011;2896;53.500;10.020;2023-03-01T10:19:56;27.67;;;13.40;;
5742;SDS011;2896;53.500;10.020;2023-03-01T10:22:40;20.37;;;12.73;;
5742;SDS011;2896;53.500;10.020;2023-03-01T10:25:09;22.67;;;13.00;;
5742;SDS011;2896;53.500;10.020;2023-03-01T10:27:42;21.03;;;12.77;;
5742;SDS011;2896;53.500;10.020;2023-03-01T10:30:16;22.50;;;13.63;;
5742;SDS011;2896;53.500;10.020;2023-03-01T10:32:45;21.63;;;13.20;;
5742;SDS011;2896;53.500;10.020;2023-03-01T10:35:18;23.77;;;12.23;;
5742;SDS011;2896;53.500;10.020;2023-03-01T10:37:56;24.13;;;13.17;;
5742;SDS011;2896;53.500;10.020;2023-03-01T10:40:25;22.30;;;12.73;;
5742;SDS011;2896;53.500;10.020;2023-03-01T10:42:51;19.27;;;13.20;;
5742;SDS011;2896;53.500;10.020;2023-03-01T10:45:27;16.83;;;11.90;;
5742;SDS011;2896;53.500;10.020;2023-03-01T10:48:11;25.80;;;13.00;;
5742;SDS011;2896;53.500;10.020;2023-03-01T10:50:39;22.53;;;13.03;;
5742;SDS011;2896;53.500;10.020;2023-03-01T10:53:18;17.43;;;13.50;;
5742;SDS011;2896;53.500;10.020;2023-03-01T10:55:56;16.27;;;11.70;;
5742;SDS011;2896;53.500;10.020;2023-03-01T10:58:28;17.90;;;11.70;;
5742;SDS011;2896;53.500;10.020;2023-03-01T11:00:57;20.30;;;12.27;;
5742;SDS011;2896;53.500;10.020;2023-03-01T11:03:26;24.03;;;12.10;;
5742;SDS011;2896;53.500;10.020;2023-03-01T11:05:57;14.70;;;11.07;;
5742;SDS011;2896;53.500;10.020;2023-03-01T11:08:30;18.03;;;11.90;;
5742;SDS011;2896;53.500;10.020;2023-03-01T11:11:07;14.57;;;10.50;;
5742;SDS011;2896;53.500;10.020;2023-03-01T11:16:33;20.17;;;11.90;;
5742;SDS011;2896;53.500;10.020;2023-03-01T11:19:04;18.93;;;11.50;;
5742;SDS011;2896;53.500;10.020;2023-03-01T11:21:47;17.30;;;11.60;;
5742;SDS011;2896;53.500;10.020;2023-03-01T11:24:22;19.43;;;11.73;;
5742;SDS011;2896;53.500;10.020;2023-03-01T11:26:55;14.47;;;11.27;;
5742;SDS011;2896;53.500;10.020;2023-03-01T11:29:26;16.10;;;10.70;;
5742;SDS011;2896;53.500;10.020;2023-03-01T11:31:57;17.27;;;10.57;;
5742;SDS011;2896;53.500;10.020;2023-03-01T11:34:31;15.87;;;10.20;;
5742;SDS011;2896;53.500;10.020;2023-03-01T11:37:09;16.30;;;10.27;;
5742;SDS011;2896;53.500;10.020;2023-03-01T11:39:49;20.30;;;10.93;;
5742;SDS011;2896;53.500;10.020;2023-03-01T11:42:24;14.13;;;9.87;;
5742;SDS011;2896;53.500;10.020;2023-03-01T11:44:56;17.50;;;10.07;;
5742;SDS011;2896;53.500;10.020;2023-03-01T11:47:31;10.67;;;9.03;;
5742;SDS011;2896;53.500;10.020;2023-03-01T11:50:14;12.63;;;10.00;;
5742;SDS011;2896;53.500;10.020;2023-03-01T11:52:48;12.10;;;9.83;;
5742;SDS011;2896;53.500;10.020;2023-03-01T11:55:29;11.00;;;9.10;;
5742;SDS011;2896;53.500;10.020;2023-03-01T11:58:11;16.80;;;8.50;;
5742;SDS011;2896;53.500;10.020;2023-03-01T12:00:59;14.10;;;9.40;;
5742;SDS011;2896;53.500;10.020;2023-03-01T12:03:33;10.97;;;8.00;;
5742;SDS011;2896;53.500;10.020;2023-03-01T12:09:02;20.63;;;9.90;;
5742;SDS011;2896;53.500;10.020;2023-03-01T12:11:41;16.73;;;9.77;;
5742;SDS011;2896;53.500;10.020;2023-03-01T12:14:23;17.43;;;9.57;;
5742;SDS011;2896;53.500;10.020;2023-03-01T12:17:14;13.30;;;9.70;;
5742;SDS011;2896;53.500;10.020;2023-03-01T12:19:57;21.73;;;9.03;;
5742;SDS011;2896;53.500;10.020;2023-03-01T12:22:35;11.97;;;8.70;;
5742;SDS011;2896;53.500;10.020;2023-03-01T12:25:18;20.77;;;8.80;;
5742;SDS011;2896;53.500;10.020;2023-03-01T12:28:01;12.90;;;9.23;;
5742;SDS011;2896;53.500;10.020;2023-03-01T12:30:48;17.03;;;8.70;;
5742;SDS011;2896;53.500;10.020;2023-03-01T12:33:27;10.90;;;8.33;;
5742;SDS011;2896;53.500;10.020;2023-03-01T12:39:06;11.70;;;8.87;;
5742;SDS011;2896;53.500;10.020;2023-03-01T12:41:48;12.23;;;8.87;;
5742;SDS011;2896;53.500;10.020;2023-03-01T12:44:40;12.87;;;9.50;;
5742;SDS011;2896;53.500;10.020;2023-03-01T12:47:26;17.03;;;10.83;;
5742;SDS011;2896;53.500;10.020;2023-03-01T12:50:02;17.33;;;10.20;;
5742;SDS011;2896;53.500;10.020;2023-03-01T12:52:38;14.90;;;9.73;;
5742;SDS011;2896;53.500;10.020;2023-03-01T12:55:18;13.77;;;9.53;;
5742;SDS011;2896;53.500;10.020;2023-03-01T12:57:52;12.83;;;9.37;;
5742;SDS011;2896;53.500;10.020;2023-03-01T13:00:27;13.80;;;10.00;;
5742;SDS011;2896;53.500;10.020;2023-03-01T13:03:00;16.40;;;9.40;;
5742;SDS011;2896;53.500;10.020;2023-03-01T13:05:39;8.67;;;7.47;;
5742;SDS011;2896;53.500;10.020;2023-03-01T13:08:15;9.57;;;8.13;;
5742;SDS011;2896;53.500;10.020;2023-03-01T13:10:47;10.70;;;8.60;;
5742;SDS011;2896;53.500;10.020;2023-03-01T13:13:19;11.80;;;8.80;;
5742;SDS011;2896;53.500;10.020;2023-03-01T13:15:47;7.73;;;7.03;;
5742;SDS011;2896;53.500;10.020;2023-03-01T13:18:30;10.10;;;8.10;;
5742;SDS011;2896;53.500;10.020;2023-03-01T13:20:59;10.60;;;7.77;;
5742;SDS011;2896;53.500;10.020;2023-03-01T13:23:29;10.80;;;8.57;;
5742;SDS011;2896;53.500;10.020;2023-03-01T13:26:03;10.47;;;7.20;;
5742;SDS011;2896;53.500;10.020;2023-03-01T13:28:37;11.27;;;7.10;;
5742;SDS011;2896;53.500;10.020;2023-03-01T13:34:40;8.70;;;7.33;;
5742;SDS011;2896;53.500;10.020;2023-03-01T13:37:26;11.03;;;7.07;;
5742;SDS011;2896;53.500;10.020;2023-03-01T13:39:56;7.43;;;6.70;;
5742;SDS011;2896;53.500;10.020;2023-03-01T13:42:33;7.70;;;6.90;;
5742;SDS011;2896;53.500;10.020;2023-03-01T13:45:03;7.40;;;6.60;;
5742;SDS011;2896;53.500;10.020;2023-03-01T13:47:41;9.50;;;6.90;;
5742;SDS011;2896;53.500;10.020;2023-03-01T13:50:16;7.57;;;6.60;;
5742;SDS011;2896;53.500;10.020;2023-03-01T13:52:48;11.10;;;6.80;;
5742;SDS011;2896;53.500;10.020;2023-03-01T13:55:18;9.00;;;6.80;;
5742;SDS011;2896;53.500;10.020;2023-03-01T13:57:49;7.80;;;7.00;;
5742;SDS011;2896;53.500;10.020;2023-03-01T14:00:25;7.80;;;6.80;;
5742;SDS011;2896;53.500;10.020;2023-03-01T14:03:01;7.10;;;6.17;;
5742;SDS011;2896;53.500;10.020;2023-03-01T14:05:35;8.33;;;7.33;;
5742;SDS011;2896;53.500;10.020;2023-03-01T14:08:03;7.53;;;6.70;;
5742;SDS011;2896;53.500;10.020;2023-03-01T14:10:32;8.00;;;6.80;;
5742;SDS011;2896;53.500;10.020;2023-03-01T14:13:09;8.30;;;7.50;;
5742;SDS011;2896;53.500;10.020;2023-03-01T14:15:59;10.73;;;6.90;;
5742;SDS011;2896;53.500;10.020;2023-03-01T14:18:36;8.10;;;7.10;;
5742;SDS011;2896;53.500;10.020;2023-03-01T14:21:08;11.20;;;7.73;;
5742;SDS011;2896;53.500;10.020;2023-03-01T14:23:35;8.30;;;7.40;;
5742;SDS011;2896;53.500;10.020;2023-03-01T14:26:07;12.43;;;7.40;;
5742;SDS011;2896;53.500;10.020;2023-03-01T14:28:36;7.27;;;6.60;;
5742;SDS011;2896;53.500;10.020;2023-03-01T14:31:25;11.87;;;7.80;;
5742;SDS011;2896;53.500;10.020;2023-03-01T14:34:01;11.50;;;7.73;;
5742;SDS011;2896;53.500;10.020;2023-03-01T14:36:30;10.20;;;7.90;;
5742;SDS011;2896;53.500;10.020;2023-03-01T14:38:58;8.30;;;7.50;;
5742;SDS011;2896;53.500;10.020;2023-03-01T14:41:31;12.20;;;8.80;;
5742;SDS011;2896;53.500;10.020;2023-03-01T14:44:00;11.10;;;8.10;;
5742;SDS011;2896;53.500;10.020;2023-03-01T14:46:30;12.60;;;8.20;;
5742;SDS011;2896;53.500;10.020;2023-03-01T14:49:01;7.90;;;6.43;;
5742;SDS011;2896;53.500;10.020;2023-03-01T14:51:30;7.17;;;6.47;;
5742;SDS011;2896;53.500;10.020;2023-03-01T14:54:02;6.80;;;5.50;;
5742;SDS011;2896;53.500;10.020;2023-03-01T14:56:32;11.07;;;7.90;;
5742;SDS011;2896;53.500;10.020;2023-03-01T14:59:09;13.17;;;7.77;;
5742;SDS011;2896;53.500;10.020;2023-03-01T15:01:37;6.80;;;6.10;;
5742;SDS011;2896;53.500;10.020;2023-03-01T15:04:05;8.40;;;6.20;;
5742;SDS011;2896;53.500;10.020;2023-03-01T15:06:34;16.60;;;8.27;;
5742;SDS011;2896;53.500;10.020;2023-03-01T15:09:00;12.27;;;7.27;;
5742;SDS011;2896;53.500;10.020;2023-03-01T15:11:28;9.80;;;6.10;;
5742;SDS011;2896;53.500;10.020;2023-03-01T15:13:56;12.20;;;7.30;;